Montgomery, NY

4:14 AM EDT en Abril 26, 2015 (GMT -0400)
Buffer Zone (Berea) | | Change Station
CLOSE
Current Station
Estación meteorológica personal
Location: Montgomery, NY
Altura: 427 ft
Estaciones meteorológicas cercanas
Aviso en curso: Frost Advisory

Alt 427 ft 41.52 °N, 74.18 °W | Updated 7 seconds ago

Clear
Despejado
29.5 ° F
Sensación térmica 30 ° F
N
0.0
Viento Variable Viento desde OSO
Gusts 0.0 mph

Hoy
Alta -- | Baja -- ° F
--% Posibilidad de precipitaciones
Ayer
Alta -- | Baja -- ° F
Precip. -- pul
6:01 AM 7:49 PM
Cuarto creciente, 53% visible
Presión 29.69 pul
Visibilidad 10.0 Millas
Nubes Despejado
Vientos helados 30 ° F
Punto de rocío 25 ° F
Humedad 82%
Precipitaciones 0.00 pul
Espesor de la nieve No disponible.
UV 0 de una escala de 12
Polen 10.80 de una escala de 12
Calidad del aire No disponible.
Flu Activity Widespread
METAR KMGJ 260754Z AUTO 00000KT 10SM CLR 00/M03 A2968 RMK AO2 SLP053 T00001028 TSNO

More Conditions Fewer Conditions

Presión 29.69 pul
Visibilidad 10.0 Millas
Nubes Despejado
Vientos helados 30 ° F
Punto de rocío 25 ° F
Humedad 82%
Precipitaciones 0.00 pul
Espesor de la nieve No disponible.
UV 0 de una escala de 12
Polen 10.80 de una escala de 12
Calidad del aire No disponible.
Flu Activity Widespread
METAR KMGJ 260754Z AUTO 00000KT 10SM CLR 00/M03 A2968 RMK AO2 SLP053 T00001028 TSNO

More Conditions Fewer Conditions

The full scope of the disaster following a powerful 7.8-magnitude earthquake in Nepal may not come into view for days, but global charities are already sending emergency aid. Click to see how you can help.

10-Day Weather Forecast

Almanac

Astronomía

Apr. 26, 2015 Salida Puesta
Hora real
Crepúsculo civil
Crepúsculo náutico
Crepúsculo astronómico
Luna
Horas de luz
Horas de luz
Tomorrow will be .
, % of the Moon is Illuminated

Extremos de hoy

Máximos del estado Bajos del estado

Community

WunderPhotos

Upload Photos

1,816,953 ¡fotos cargadas!

WunderBlogs® & News

Nearby

Calidad del aire

  Calidad del aire Índice AQ Contaminante
Not available.

Grosos de nieve

Estación Profundido Altura

Actividad de terremotos

Ciudad Distance Mag. Tiempo y dato
Magnitud mínima muestra es 2,5.

Temperaturas de aguas costeras

Lugar Temperatura

Stations

Estaciones meteorológicas cercanas

Ubicación de la estación Temp. Vientos helados Punto de rocío Humedad Viento Precip. Alt Actualizado Tipo
                   
Frost Advisory
Statement as of 3:23 AM EDT en Abril 26, 2015

... Frost advisory remains in effect until 8 am EDT this morning...

* locations... much of southern Connecticut and the lower Hudson
Valley... interior portions of northeastern New Jersey... and
eastern Long Island.

* Hazards... ground temperatures falling to freezing.

* Temperatures... 30s.

* Timing... until 8 am.

* Impacts... possible damage to early season plants that are
unprotected.

Precautionary/preparedness actions...

A frost advisory means that frost is expected. Sensitive outdoor
plants should be protected.



Jmc